Time;durP1;ratioP1;P1;durP2;ratioP2;P2;SDS_P1;SDS_P2;PMS_P1;PMS_P2;Temp;Humidity;BMP_temperature;BMP_pressure;BME280_temperature;BME280_humidity;BME280_pressure;Samples;Min_cycle;Max_cycle;Signal;HPM_P1;HPM_P2
2023/02/12 00:01:53;;;;;;;76.32;53.65;;;;;;;1.53;65.89;100513.78;5091403;28;20024;-47
2023/02/12 00:04:21;;;;;;;84.45;56.72;;;;;;;1.52;66.40;100512.13;5091327;28;20035;-46
2023/02/12 00:06:58;;;;;;;76.63;54.70;;;;;;;1.50;66.66;100513.97;5092521;28;20028;-47
2023/02/12 00:09:36;;;;;;;78.38;55.40;;;;;;;1.50;66.57;100511.41;5092602;28;20032;-48
2023/02/12 00:12:19;;;;;;;75.97;53.42;;;;;;;1.50;65.79;100517.41;5091211;28;20072;-47
2023/02/12 00:14:50;;;;;;;76.32;50.63;;;;;;;1.35;66.02;100521.78;5091101;28;20024;-47
2023/02/12 00:17:32;;;;;;;77.05;54.92;;;;;;;1.18;66.58;100517.63;5091165;28;20097;-49
2023/02/12 00:20:06;;;;;;;83.90;56.58;;;;;;;1.09;66.83;100525.97;5091050;28;20028;-46
2023/02/12 00:22:52;;;;;;;82.80;58.95;;;;;;;1.03;67.43;100528.94;5090068;28;20501;-46
2023/02/12 00:25:23;;;;;;;80.30;58.17;;;;;;;1.00;67.26;100521.34;5090948;28;20379;-46
2023/02/12 00:27:52;;;;;;;85.95;57.00;;;;;;;1.00;67.40;100518.78;5092264;28;20473;-46
2023/02/12 00:30:20;;;;;;;78.68;53.92;;;;;;;1.03;67.69;100517.75;5090905;28;20035;-46
2023/02/12 00:32:46;;;;;;;92.68;63.22;;;;;;;1.05;67.35;100513.31;5092153;28;20042;-46
2023/02/12 00:35:18;;;;;;;81.60;56.17;;;;;;;1.04;67.84;100512.50;5090785;28;20024;-46
2023/02/12 00:37:50;;;;;;;82.22;53.97;;;;;;;0.91;67.65;100512.41;5090312;28;20052;-46
2023/02/12 00:40:16;;;;;;;86.90;53.10;;;;;;;0.79;67.79;100513.16;5092052;28;20389;-46
2023/02/12 00:42:57;;;;;;;85.22;55.58;;;;;;;0.65;68.12;100514.00;5090696;28;20123;-46
2023/02/12 00:45:26;;;;;;;85.45;56.00;;;;;;;0.59;68.65;100510.00;5091964;28;20020;-46
2023/02/12 00:47:53;;;;;;;79.47;54.53;;;;;;;0.54;68.56;100512.06;5091954;28;20055;-46
2023/02/12 00:50:30;;;;;;;84.78;56.33;;;;;;;0.34;68.64;100512.38;5090570;28;20042;-47
2023/02/12 00:52:56;;;;;;;82.78;54.58;;;;;;;0.40;69.23;100517.16;5091854;28;20032;-46
2023/02/12 00:55:33;;;;;;;82.25;59.70;;;;;;;0.47;68.93;100504.75;5090257;28;20056;-47
2023/02/12 00:58:15;;;;;;;81.90;57.17;;;;;;;0.58;68.67;100516.13;5090361;28;20221;-47
2023/02/12 01:00:52;;;;;;;80.82;53.05;;;;;;;0.56;68.74;100505.03;5091750;28;20055;-48
2023/02/12 01:03:19;;;;;;;78.32;58.92;;;;;;;0.51;68.92;100506.22;5090520;28;20028;-46
2023/02/12 01:09:00;;;;;;;75.53;50.00;;;;;;;0.61;68.98;100503.94;5092002;28;20058;-46
2023/02/12 01:11:27;;;;;;;77.05;51.90;;;;;;;0.89;68.91;100508.28;5091872;28;20032;-45
2023/02/12 01:13:53;;;;;;;75.68;53.78;;;;;;;1.18;68.20;100507.28;5090428;28;20043;-44
2023/02/12 01:16:27;;;;;;;69.85;50.97;;;;;;;1.20;66.85;100502.88;5091603;28;20017;-44
2023/02/12 01:18:54;;;;;;;72.82;51.72;;;;;;;1.07;66.46;100507.16;5090366;28;20020;-45
2023/02/12 01:21:29;;;;;;;76.00;54.38;;;;;;;0.89;66.94;100508.28;5091623;28;20397;-44
2023/02/12 01:24:07;;;;;;;79.45;53.33;;;;;;;0.88;67.57;100502.25;5091698;28;20016;-45
2023/02/12 01:26:46;;;;;;;78.75;56.05;;;;;;;0.94;67.26;100513.97;5091556;28;20032;-46
2023/02/12 01:29:20;;;;;;;72.25;52.35;;;;;;;0.99;67.34;100512.78;5091556;28;20052;-46
2023/02/12 01:31:52;;;;;;;81.38;55.20;;;;;;;0.95;67.65;100518.25;5089836;28;20031;-44
2023/02/12 01:34:31;;;;;;;82.55;55.30;;;;;;;0.80;67.82;100517.41;5091575;28;20024;-45
2023/02/12 01:36:57;;;;;;;83.53;59.67;;;;;;;0.71;67.50;100517.97;5091114;28;20048;-44
2023/02/12 01:39:24;;;;;;;79.30;54.33;;;;;;;0.67;68.10;100519.06;5090223;28;20059;-44
2023/02/12 01:41:50;;;;;;;81.32;58.47;;;;;;;0.65;68.72;100514.00;5091458;28;20024;-44
2023/02/12 01:44:51;;;;;;;76.90;52.72;;;;;;;0.56;67.94;100511.94;5091383;28;20051;-45
2023/02/12 01:47:20;;;;;;;80.47;53.22;;;;;;;0.49;68.28;100511.47;5090430;28;20709;-45
2023/02/12 01:49:50;;;;;;;86.80;55.88;;;;;;;0.42;68.27;100523.06;5091386;28;20051;-45
2023/02/12 01:52:32;;;;;;;84.63;52.88;;;;;;;0.39;68.28;100521.50;5089950;28;20028;-44
2023/02/12 01:55:09;;;;;;;81.28;52.50;;;;;;;0.35;68.29;100512.28;5090046;28;20028;-44
2023/02/12 01:57:59;;;;;;;77.82;53.15;;;;;;;0.33;68.46;100508.13;5090010;28;20024;-44
2023/02/12 02:00:30;;;;;;;78.78;52.92;;;;;;;0.19;69.10;100507.19;5091390;28;20523;-44
2023/02/12 02:03:18;;;;;;;77.32;49.70;;;;;;;0.17;69.08;100496.09;5091228;28;20020;-44
2023/02/12 02:06:07;;;;;;;77.20;50.25;;;;;;;0.21;68.97;100509.69;5091334;28;20032;-44
2023/02/12 02:08:34;;;;;;;86.05;56.78;;;;;;;0.13;69.17;100498.97;5092570;28;20032;-44
2023/02/12 02:17:29;;;;;;;76.22;49.00;;;;;;;-0.08;68.43;100488.09;5094586;28;20503;-45
2023/02/12 02:21:01;;;;;;;71.43;49.53;;;;;;;-0.18;69.34;100495.56;5094933;28;20020;-45
2023/02/12 02:24:17;;;;;;;80.13;51.15;;;;;;;-0.30;69.96;100491.06;5093275;28;20489;-44
2023/02/12 02:27:40;;;;;;;81.20;48.55;;;;;;;-0.40;70.19;100495.94;5094388;28;20020;-45
2023/02/12 02:30:44;;;;;;;81.22;56.05;;;;;;;-0.33;70.49;100491.25;5052998;28;20054;-44
2023/02/12 02:33:31;;;;;;;87.43;61.40;;;;;;;-0.29;71.00;100490.16;5094245;28;20032;-44
2023/02/12 02:40:07;;;;;;;77.28;51.97;;;;;;;-0.22;71.30;100497.47;5094043;28;20063;-45
2023/02/12 02:42:42;;;;;;;84.20;54.38;;;;;;;-0.24;70.70;100499.31;5094205;28;20028;-45
2023/02/12 02:45:42;;;;;;;82.50;54.90;;;;;;;-0.27;70.41;100493.47;5092838;28;20036;-45
2023/02/12 02:48:55;;;;;;;76.03;48.85;;;;;;;-0.34;70.95;100490.44;5079606;28;20627;-44
2023/02/12 02:52:03;;;;;;;78.03;50.63;;;;;;;-0.45;71.09;100487.59;5092391;28;20517;-45
2023/02/12 02:55:02;;;;;;;77.45;50.28;;;;;;;-0.30;71.25;100481.59;5094011;28;20031;-44
2023/02/12 02:57:57;;;;;;;67.35;42.13;;;;;;;-0.11;70.67;100475.38;5093920;28;20028;-44
2023/02/12 03:00:59;;;;;;;77.25;45.35;;;;;;;0.02;70.54;100478.94;5092505;28;20040;-44
2023/02/12 03:03:32;;;;;;;80.65;50.38;;;;;;;-0.04;69.50;100474.09;5092453;28;20421;-45
2023/02/12 03:06:39;;;;;;;76.75;53.08;;;;;;;-0.19;70.68;100469.84;5093679;28;20031;-45
2023/02/12 03:09:38;;;;;;;77.53;51.50;;;;;;;-0.13;71.10;100469.50;5092324;28;20020;-46
2023/02/12 03:12:36;;;;;;;76.05;47.13;;;;;;;-0.02;70.64;100464.53;5093520;28;20393;-44
2023/02/12 03:15:35;;;;;;;76.57;51.35;;;;;;;0.28;70.60;100461.94;5092170;28;20028;-44
2023/02/12 03:18:34;;;;;;;73.95;44.38;;;;;;;0.52;70.29;100458.78;5092142;28;20210;-44
2023/02/12 03:21:46;;;;;;;80.20;52.22;;;;;;;0.54;68.23;100455.22;5093243;28;20028;-45
2023/02/12 03:24:50;;;;;;;78.78;56.55;;;;;;;0.17;68.53;100448.81;5093392;28;20032;-44
2023/02/12 03:27:50;;;;;;;75.30;52.67;;;;;;;-0.03;70.18;100455.97;5050807;28;20089;-46
2023/02/12 03:30:47;;;;;;;71.50;47.05;;;;;;;0.11;69.84;100449.19;5093159;28;20034;-45
2023/02/12 03:33:42;;;;;;;75.85;50.13;;;;;;;0.01;69.61;100453.22;5093146;28;20099;-46
2023/02/12 03:36:49;;;;;;;78.93;51.58;;;;;;;-0.04;69.71;100467.22;5091826;28;20024;-46
2023/02/12 03:40:02;;;;;;;82.68;52.03;;;;;;;-0.11;70.04;100460.72;5090200;28;20051;-44
2023/02/12 03:42:52;;;;;;;108.63;56.53;;;;;;;-0.10;70.18;100462.41;5092958;28;20056;-44
2023/02/12 03:45:58;;;;;;;90.97;54.67;;;;;;;-0.05;70.23;100462.13;5091731;28;20485;-44
2023/02/12 03:48:28;;;;;;;86.87;53.27;;;;;;;-0.17;70.30;100462.84;5091937;28;20417;-44
2023/02/12 03:51:22;;;;;;;85.53;54.47;;;;;;;-0.31;70.32;100469.59;5091536;28;20508;-45
2023/02/12 03:54:12;;;;;;;76.78;50.10;;;;;;;-0.37;70.72;100476.88;5091588;28;20114;-45
2023/02/12 03:57:15;;;;;;;78.20;49.72;;;;;;;-0.38;71.17;100477.75;5091438;28;20371;-45
2023/02/12 03:59:50;;;;;;;79.85;48.03;;;;;;;-0.26;71.04;100472.75;5048714;28;20524;-44
2023/02/12 04:02:25;;;;;;;85.20;48.60;;;;;;;-0.18;71.26;100463.75;5091324;28;20448;-45
2023/02/12 04:05:24;;;;;;;77.97;47.83;;;;;;;-0.20;70.85;100466.44;5091371;28;20276;-44
2023/02/12 04:08:28;;;;;;;81.95;51.35;;;;;;;-0.21;70.76;100459.59;5092572;28;20107;-45
2023/02/12 04:11:13;;;;;;;79.00;49.58;;;;;;;-0.35;70.26;100462.94;5092373;28;20081;-44
2023/02/12 04:14:43;;;;;;;82.65;54.33;;;;;;;-0.45;70.34;100466.97;5091168;28;20501;-45
2023/02/12 04:17:54;;;;;;;81.72;53.00;;;;;;;-0.55;71.37;100473.56;5092370;28;20062;-44
2023/02/12 04:21:20;;;;;;;165.68;57.15;;;;;;;-0.68;71.62;100474.25;5092362;28;20524;-44
2023/02/12 04:24:30;;;;;;;163.07;55.55;;;;;;;-0.75;71.33;100477.22;5092380;28;20032;-45
2023/02/12 04:27:57;;;;;;;90.20;49.35;;;;;;;-0.70;71.95;100481.22;5092282;28;20020;-46
2023/02/12 04:30:52;;;;;;;84.03;49.42;;;;;;;-0.70;72.06;100478.66;5091963;28;20062;-44
2023/02/12 04:34:22;;;;;;;75.93;47.33;;;;;;;-0.76;71.10;100478.16;5091138;28;20026;-45
2023/02/12 04:37:18;;;;;;;74.78;46.53;;;;;;;-0.83;71.74;100478.47;5029324;28;20112;-44
2023/02/12 04:39:48;;;;;;;79.53;50.90;;;;;;;-0.90;71.45;100472.00;5027651;28;20465;-44
2023/02/12 04:42:14;;;;;;;80.45;51.17;;;;;;;-0.96;72.14;100482.63;4997091;28;20041;-44
2023/02/12 04:44:43;;;;;;;78.00;47.88;;;;;;;-1.02;72.37;100476.06;5029702;28;20051;-44
2023/02/12 04:47:14;;;;;;;76.10;48.53;;;;;;;-1.01;71.69;100480.31;5029621;28;20037;-44
2023/02/12 04:49:42;;;;;;;81.03;48.55;;;;;;;-0.97;72.02;100480.13;5029691;28;20025;-44
2023/02/12 04:52:09;;;;;;;71.53;47.70;;;;;;;-0.92;72.13;100480.72;5012864;28;20132;-44
2023/02/12 04:54:38;;;;;;;74.78;44.75;;;;;;;-0.93;72.21;100476.47;5029585;28;20187;-44
2023/02/12 04:57:05;;;;;;;73.30;47.80;;;;;;;-0.95;72.13;100478.31;5012905;28;20053;-43
2023/02/12 04:59:32;;;;;;;73.47;46.75;;;;;;;-0.98;72.02;100473.31;5012886;28;20036;-44
2023/02/12 05:01:59;;;;;;;76.28;48.78;;;;;;;-1.03;72.24;100468.41;5012892;28;20049;-44
2023/02/12 05:04:26;;;;;;;75.97;50.30;;;;;;;-1.03;71.81;100479.56;5029486;28;20030;-44
2023/02/12 05:06:53;;;;;;;77.95;53.10;;;;;;;-0.92;73.14;100471.25;5029458;28;20036;-44
2023/02/12 05:09:20;;;;;;;78.75;53.22;;;;;;;-0.84;72.66;100483.72;5036037;28;20025;-44
2023/02/12 05:11:47;;;;;;;79.03;52.53;;;;;;;-0.81;72.32;100475.81;5090363;28;20020;-44
2023/02/12 05:14:14;;;;;;;73.25;48.28;;;;;;;-0.74;72.23;100477.16;5091771;28;20028;-44
2023/02/12 05:16:41;;;;;;;71.72;45.05;;;;;;;-0.78;72.25;100480.00;5091662;28;20104;-44
2023/02/12 05:19:08;;;;;;;80.53;54.58;;;;;;;-0.79;72.34;100471.41;5091707;28;20047;-44
2023/02/12 05:21:50;;;;;;;77.20;51.08;;;;;;;-0.80;72.36;100487.78;5090411;28;20028;-45
2023/02/12 05:24:36;;;;;;;75.40;52.72;;;;;;;-0.74;72.29;100487.47;5091534;28;20513;-44
2023/02/12 05:27:16;;;;;;;76.85;51.35;;;;;;;-0.74;72.28;100487.47;5090240;28;20039;-45
2023/02/12 05:30:01;;;;;;;81.22;56.58;;;;;;;-0.83;72.64;100481.03;5090274;28;20169;-45
2023/02/12 05:32:46;;;;;;;81.47;55.25;;;;;;;-0.79;74.55;100484.28;5091399;28;20115;-45
2023/02/12 05:35:18;;;;;;;103.60;69.95;;;;;;;-0.64;76.53;100475.72;5090186;28;20123;-44
2023/02/12 05:37:56;;;;;;;113.18;70.47;;;;;;;-0.25;78.07;100476.16;5089104;28;20048;-46
2023/02/12 05:40:29;;;;;;;91.32;66.55;;;;;;;0.08;78.97;100478.59;5090125;28;20039;-44
2023/02/12 05:43:02;;;;;;;89.88;57.53;;;;;;;0.11;77.38;100482.72;5093322;28;20032;-44
2023/02/12 05:45:43;;;;;;;92.72;58.60;;;;;;;0.05;77.37;100477.94;5095310;28;20020;-46
2023/02/12 05:48:27;;;;;;;82.68;55.47;;;;;;;0.04;76.49;100471.94;5093947;28;20093;-45
2023/02/12 05:51:07;;;;;;;82.90;55.03;;;;;;;0.03;74.63;100478.00;5093751;28;20025;-46
2023/02/12 05:53:35;;;;;;;81.05;54.58;;;;;;;-0.09;73.40;100474.38;5095223;28;20500;-44
2023/02/12 05:56:15;;;;;;;80.50;53.58;;;;;;;-0.26;72.67;100477.09;5076895;28;20028;-46
2023/02/12 05:58:45;;;;;;;76.30;51.60;;;;;;;-0.44;73.35;100478.97;5093771;28;20036;-44
2023/02/12 06:01:23;;;;;;;83.45;56.22;;;;;;;-0.46;73.67;100476.47;5095071;28;20031;-44
2023/02/12 06:03:50;;;;;;;78.63;54.70;;;;;;;-0.44;73.14;100468.66;5095045;28;20035;-44
2023/02/12 06:06:17;;;;;;;79.47;55.78;;;;;;;-0.52;72.90;100470.81;5094915;28;20471;-43
2023/02/12 06:08:47;;;;;;;73.80;49.08;;;;;;;-0.63;72.58;100472.22;5094926;28;20020;-44
2023/02/12 06:11:15;;;;;;;76.30;49.67;;;;;;;-0.72;72.35;100471.91;5093397;28;20028;-44
2023/02/12 06:13:43;;;;;;;77.28;54.00;;;;;;;-0.84;72.42;100466.50;5094786;28;20030;-44
2023/02/12 06:16:19;;;;;;;88.38;52.65;;;;;;;-0.96;73.27;100474.06;5093413;28;20115;-44
2023/02/12 06:18:47;;;;;;;79.70;55.25;;;;;;;-0.98;73.91;100470.75;5094697;28;20028;-44
2023/02/12 06:21:18;;;;;;;78.75;53.67;;;;;;;-0.98;74.03;100484.47;5093319;28;20086;-44
2023/02/12 06:23:47;;;;;;;81.22;55.38;;;;;;;-0.98;73.50;100470.75;5094695;28;20035;-44
2023/02/12 06:26:15;;;;;;;81.03;51.90;;;;;;;-0.97;73.80;100472.41;5094499;28;20034;-44
2023/02/12 06:28:43;;;;;;;80.35;46.75;;;;;;;-1.04;73.77;100469.31;5093240;28;20020;-44
2023/02/12 06:31:26;;;;;;;77.35;49.30;;;;;;;-1.05;73.51;100467.66;5094364;28;20022;-44
2023/02/12 06:33:56;;;;;;;70.28;45.00;;;;;;;-1.06;73.16;100466.81;5094499;28;20421;-44
2023/02/12 06:36:23;;;;;;;72.63;47.55;;;;;;;-1.10;73.27;100473.06;5094342;28;20156;-44
2023/02/12 06:38:50;;;;;;;80.30;51.30;;;;;;;-1.07;73.85;100475.44;5092740;28;20044;-44
2023/02/12 06:41:17;;;;;;;76.10;49.00;;;;;;;-1.06;73.51;100474.56;5094300;28;20512;-44
2023/02/12 06:43:53;;;;;;;79.75;49.50;;;;;;;-1.03;73.47;100469.25;5093145;28;20367;-46
2023/02/12 06:46:22;;;;;;;97.85;59.13;;;;;;;-1.05;73.62;100468.50;5094107;28;20493;-44
2023/02/12 06:49:10;;;;;;;160.15;109.70;;;;;;;-1.09;73.73;100469.56;5094074;28;20402;-44
2023/02/12 06:51:41;;;;;;;1969.93;849.17;;;;;;;-1.12;73.79;100476.63;5094247;28;20028;-45
2023/02/12 06:54:34;;;;;;;1999.90;999.90;;;;;;;-1.17;73.52;100478.59;5092952;28;20389;-45
2023/02/12 06:57:01;;;;;;;1999.90;999.90;;;;;;;-1.04;73.92;100466.75;5094000;28;20032;-44
2023/02/12 06:59:33;;;;;;;1999.90;999.90;;;;;;;-1.00;73.72;100470.81;5092663;28;20420;-44
2023/02/12 07:02:03;;;;;;;1999.90;999.90;;;;;;;-0.98;74.29;100463.84;5093856;28;20588;-45
2023/02/12 07:04:33;;;;;;;1999.90;990.53;;;;;;;-0.93;75.00;100473.91;5093783;28;20499;-45
2023/02/12 07:06:59;;;;;;;1999.90;999.90;;;;;;;-0.84;74.54;100476.00;5093733;28;20154;-44
2023/02/12 07:09:31;;;;;;;1999.90;999.90;;;;;;;-0.66;74.66;100481.91;5092450;28;20025;-44
2023/02/12 07:12:03;;;;;;;1674.47;568.35;;;;;;;-0.31;74.06;100476.53;5093565;28;20047;-44
2023/02/12 07:14:30;;;;;;;1263.18;660.00;;;;;;;0.12;73.20;100487.81;5093819;28;20016;-44
2023/02/12 07:16:56;;;;;;;1512.78;773.92;;;;;;;0.36;72.04;100482.97;5092214;28;20035;-44
2023/02/12 07:19:26;;;;;;;781.33;472.77;;;;;;;0.57;70.63;100485.19;5092213;28;20043;-44
2023/02/12 07:21:52;;;;;;;843.53;497.85;;;;;;;0.76;70.68;100483.16;5092171;28;20408;-44
2023/02/12 07:24:20;;;;;;;913.08;450.55;;;;;;;0.91;68.96;100476.22;5093465;28;20024;-44
2023/02/12 07:26:47;;;;;;;395.20;251.88;;;;;;;1.27;69.24;100482.63;5093378;28;20490;-46
2023/02/12 07:29:29;;;;;;;1999.90;999.90;;;;;;;1.31;67.98;100478.94;5092017;28;20028;-46
2023/02/12 07:31:55;;;;;;;1999.90;870.95;;;;;;;1.24;67.47;100487.16;5091765;28;20494;-47
2023/02/12 07:34:32;;;;;;;602.30;271.90;;;;;;;1.15;67.45;100483.41;5091908;28;20055;-46
2023/02/12 07:37:00;;;;;;;514.20;251.20;;;;;;;1.38;67.00;100484.53;5091823;28;20028;-47
2023/02/12 07:39:38;;;;;;;378.42;170.70;;;;;;;1.75;65.79;100483.03;5092956;28;20070;-48
2023/02/12 07:42:07;;;;;;;897.47;557.28;;;;;;;2.06;65.31;100487.97;5093114;28;20023;-46
2023/02/12 07:44:38;;;;;;;874.15;501.50;;;;;;;2.27;63.80;100491.72;5093052;28;20110;-47
2023/02/12 07:47:05;;;;;;;466.73;240.38;;;;;;;2.48;63.36;100480.88;5091687;28;20055;-46
2023/02/12 07:49:32;;;;;;;146.20;76.38;;;;;;;2.56;62.91;100487.19;5074828;28;20402;-46
2023/02/12 07:51:59;;;;;;;205.75;82.53;;;;;;;2.66;62.48;100484.78;5091450;28;20028;-46
2023/02/12 07:54:26;;;;;;;208.25;85.85;;;;;;;2.47;62.02;100484.38;5092883;28;20024;-46
2023/02/12 07:56:53;;;;;;;113.88;59.15;;;;;;;2.61;62.85;100484.25;5091470;28;20458;-46
2023/02/12 07:59:38;;;;;;;119.63;61.20;;;;;;;3.11;62.66;100485.13;5093046;28;20031;-48
2023/02/12 08:02:06;;;;;;;116.90;59.67;;;;;;;3.59;61.34;100482.56;5092712;28;20019;-47
2023/02/12 08:04:34;;;;;;;122.18;66.35;;;;;;;4.12;61.29;100487.34;5091302;28;20063;-47
2023/02/12 08:07:01;;;;;;;123.18;67.88;;;;;;;4.82;60.64;100471.72;5092447;28;20024;-47
2023/02/12 08:09:30;;;;;;;145.75;96.95;;;;;;;5.33;58.18;100479.84;5091314;28;20059;-47
2023/02/12 08:11:57;;;;;;;105.57;79.47;;;;;;;5.77;57.33;100474.59;5074237;28;20104;-47
2023/02/12 08:14:40;;;;;;;112.55;89.82;;;;;;;5.98;56.54;100480.69;5091204;28;20054;-49
2023/02/12 08:17:19;;;;;;;79.13;61.25;;;;;;;6.26;54.54;100480.16;5091130;28;20111;-48
2023/02/12 08:19:49;;;;;;;83.50;54.95;;;;;;;6.63;55.54;100474.47;5091153;28;20527;-48
2023/02/12 08:22:32;;;;;;;67.85;48.65;;;;;;;7.08;53.05;100480.13;5092361;28;20103;-48
2023/02/12 08:25:10;;;;;;;68.07;47.08;;;;;;;7.35;52.17;100476.06;5092340;28;20393;-48
2023/02/12 08:27:36;;;;;;;69.75;47.72;;;;;;;7.58;51.19;100484.47;5090955;28;20020;-47
2023/02/12 08:30:04;;;;;;;74.30;52.70;;;;;;;8.13;50.33;100478.66;5090909;28;20024;-47
2023/02/12 08:32:32;;;;;;;62.17;48.97;;;;;;;9.00;48.84;100477.59;5092107;28;20032;-47
2023/02/12 08:34:59;;;;;;;69.28;49.60;;;;;;;9.32;46.67;100479.75;5092175;28;20110;-47
2023/02/12 08:37:26;;;;;;;68.85;48.97;;;;;;;9.26;46.38;100471.69;5091667;28;20063;-47
2023/02/12 08:39:53;;;;;;;64.93;47.53;;;;;;;9.30;45.64;100476.47;5092229;28;20066;-47
2023/02/12 08:42:21;;;;;;;72.82;48.90;;;;;;;9.60;45.46;100477.09;5092133;28;20020;-47
2023/02/12 08:44:48;;;;;;;72.57;49.55;;;;;;;10.32;45.12;100477.88;5092339;28;20049;-47
2023/02/12 08:47:15;;;;;;;63.97;46.88;;;;;;;11.45;44.35;100468.94;5092050;28;20031;-47
2023/02/12 08:49:42;;;;;;;63.75;46.97;;;;;;;12.64;41.94;100470.22;5090780;28;20035;-47
2023/02/12 08:52:24;;;;;;;61.08;46.08;;;;;;;13.29;39.64;100461.19;5090591;28;20032;-47
2023/02/12 08:54:50;;;;;;;56.95;46.85;;;;;;;12.58;39.13;100463.81;5090978;28;20024;-47
2023/02/12 08:57:36;;;;;;;55.28;45.00;;;;;;;11.84;40.25;100478.84;5090570;28;20028;-48
2023/02/12 09:00:03;;;;;;;70.45;46.92;;;;;;;11.50;40.91;100477.16;5090114;28;20581;-47
2023/02/12 09:02:30;;;;;;;59.75;46.88;;;;;;;11.82;40.83;100472.94;5091853;28;20031;-47
2023/02/12 09:04:58;;;;;;;57.22;46.25;;;;;;;12.28;40.18;100470.63;5090551;28;20414;-47
2023/02/12 09:07:25;;;;;;;59.15;45.95;;;;;;;12.79;39.35;100466.69;5091785;28;20114;-48
2023/02/12 09:09:51;;;;;;;69.35;52.40;;;;;;;13.65;38.62;100460.66;5091756;28;20078;-48
2023/02/12 09:12:20;;;;;;;61.97;47.13;;;;;;;14.72;38.27;100455.19;5091962;28;20034;-47
2023/02/12 09:14:50;;;;;;;58.17;45.97;;;;;;;15.60;35.89;100452.50;5091670;28;20489;-46
2023/02/12 09:17:17;;;;;;;59.10;47.85;;;;;;;16.18;34.22;100443.41;5091558;28;20390;-46
2023/02/12 09:19:44;;;;;;;55.75;46.95;;;;;;;16.67;32.89;100440.84;5094541;28;20024;-46
2023/02/12 09:22:12;;;;;;;58.42;46.28;;;;;;;16.78;32.70;100440.25;5095804;28;20110;-46
2023/02/12 09:24:39;;;;;;;55.13;45.10;;;;;;;17.54;32.42;100439.28;5095814;28;20481;-46
2023/02/12 09:27:06;;;;;;;53.63;46.35;;;;;;;18.21;31.18;100433.97;5095718;28;20066;-46
2023/02/12 09:29:33;;;;;;;56.20;46.33;;;;;;;18.42;30.51;100438.22;5095953;28;20396;-46
2023/02/12 09:32:11;;;;;;;53.55;46.35;;;;;;;18.71;30.46;100436.88;5094015;28;20518;-47
2023/02/12 09:34:51;;;;;;;52.30;45.80;;;;;;;18.99;29.90;100433.94;5094588;28;20028;-46
2023/02/12 09:37:18;;;;;;;51.83;46.22;;;;;;;19.26;29.04;100434.63;5095508;28;20027;-46
2023/02/12 09:39:44;;;;;;;55.05;48.97;;;;;;;19.42;28.78;100422.63;5095441;28;20221;-46
2023/02/12 09:43:13;;;;;;;57.67;47.97;;;;;;;19.75;29.34;100422.41;5094051;28;20031;-46
2023/02/12 09:46:02;;;;;;;57.47;48.97;;;;;;;20.04;28.97;100430.78;5095293;28;20032;-46
2023/02/12 09:49:05;;;;;;;54.15;47.35;;;;;;;20.26;28.65;100433.84;5093932;28;20032;-47
2023/02/12 09:52:06;;;;;;;55.72;49.90;;;;;;;20.77;27.72;100426.50;5093823;28;20169;-47
2023/02/12 09:54:48;;;;;;;55.28;49.38;;;;;;;21.07;27.73;100429.19;5093920;28;20038;-47
2023/02/12 09:57:35;;;;;;;54.53;48.63;;;;;;;21.23;27.22;100427.75;5093750;28;20032;-47
2023/02/12 10:00:38;;;;;;;58.13;51.63;;;;;;;21.24;26.15;100420.53;5093816;28;20024;-47
2023/02/12 10:03:19;;;;;;;55.80;49.90;;;;;;;20.93;26.20;100425.06;5095016;28;20020;-47
2023/02/12 10:06:19;;;;;;;55.70;49.70;;;;;;;20.92;26.70;100431.44;5094978;28;20024;-46
2023/02/12 10:09:35;;;;;;;59.88;53.28;;;;;;;21.49;25.66;100431.91;5093635;28;20031;-47
2023/02/12 10:12:49;;;;;;;56.50;50.50;;;;;;;21.97;25.70;100427.41;5073535;28;20062;-47
2023/02/12 10:15:40;;;;;;;55.35;49.28;;;;;;;21.76;24.66;100425.31;5065930;28;20054;-47
2023/02/12 10:18:26;;;;;;;56.53;49.88;;;;;;;21.38;24.95;100423.81;5094651;28;20020;-47
2023/02/12 10:21:49;;;;;;;56.47;49.63;;;;;;;20.59;25.80;100434.53;5093398;28;20078;-47
2023/02/12 10:24:56;;;;;;;56.60;49.35;;;;;;;19.63;26.82;100425.97;5094404;28;20027;-46
2023/02/12 10:28:07;;;;;;;55.05;48.85;;;;;;;19.23;27.02;100429.69;5093143;28;20586;-47
2023/02/12 10:31:13;;;;;;;56.88;49.38;;;;;;;19.43;27.43;100426.91;5094321;28;20024;-46
2023/02/12 10:33:48;;;;;;;55.35;47.92;;;;;;;20.29;26.34;100429.91;5092953;28;20035;-47
2023/02/12 10:36:37;;;;;;;113.53;101.45;;;;;;;20.99;26.06;100418.00;5094390;28;20039;-47
2023/02/12 10:39:11;;;;;;;63.88;56.15;;;;;;;21.79;24.93;100420.28;5094033;28;20075;-46
2023/02/12 10:41:53;;;;;;;1999.90;999.90;;;;;;;22.13;24.68;100418.69;5094367;28;20393;-47
2023/02/12 10:44:20;;;;;;;1999.90;999.90;;;;;;;21.32;24.81;100421.00;5094169;28;20043;-47
2023/02/12 10:46:55;;;;;;;1489.32;901.10;;;;;;;21.07;25.56;100420.38;5092859;28;20024;-47
2023/02/12 10:49:21;;;;;;;;;;;;;;;21.56;26.18;100415.75;5094577;28;20595;-47
2023/02/12 10:52:46;;;;;;;531.00;370.30;;;;;;;21.70;25.35;100403.00;5092673;28;19912;-47
2023/02/12 10:55:40;;;;;;;289.30;198.55;;;;;;;22.00;24.64;100399.41;5093940;28;20055;-47
2023/02/12 10:58:20;;;;;;;297.15;203.98;;;;;;;22.22;24.78;100402.28;5062284;28;20067;-47
2023/02/12 11:01:30;;;;;;;376.30;254.40;;;;;;;21.88;24.26;100391.38;5092653;28;20501;-46
2023/02/12 11:03:58;;;;;;;453.02;296.70;;;;;;;21.32;24.50;100388.97;5093880;28;20055;-47
2023/02/12 11:06:33;;;;;;;213.18;138.27;;;;;;;20.68;24.52;100390.50;5094027;28;20027;-46
2023/02/12 11:08:59;;;;;;;;;;;;;;;20.40;25.66;100388.34;5094322;28;20024;-46
2023/02/12 11:11:36;;;;;;;382.63;244.07;;;;;;;20.44;25.19;100381.53;5093603;28;19916;-46
2023/02/12 11:14:27;;;;;;;291.27;194.02;;;;;;;20.59;25.32;100378.50;5092388;28;20032;-46
2023/02/12 11:17:01;;;;;;;533.55;480.20;;;;;;;21.00;24.72;100374.25;5093368;28;20028;-46
2023/02/12 11:19:30;;;;;;;707.17;616.42;;;;;;;21.35;24.20;100375.16;5092307;28;20085;-47
2023/02/12 11:22:18;;;;;;;777.85;693.50;;;;;;;21.88;24.20;100375.34;5093473;28;20028;-46
2023/02/12 11:24:47;;;;;;;454.00;403.88;;;;;;;22.37;23.10;100367.03;5093539;28;20024;-46
2023/02/12 11:27:22;;;;;;;155.25;124.55;;;;;;;22.74;22.51;100367.50;5093405;28;20035;-46
2023/02/12 11:30:09;;;;;;;87.90;72.32;;;;;;;23.05;22.36;100360.84;5093384;28;20028;-46
2023/02/12 11:32:36;;;;;;;134.80;107.47;;;;;;;23.13;21.92;100354.28;5092243;28;20036;-46
2023/02/12 11:35:16;;;;;;;120.97;100.60;;;;;;;23.27;22.08;100341.38;5093242;28;20031;-46
2023/02/12 11:37:45;;;;;;;70.25;59.60;;;;;;;23.28;21.73;100345.69;5092882;28;20103;-46
2023/02/12 11:40:29;;;;;;;597.55;536.08;;;;;;;23.07;22.32;100352.56;5092709;28;20486;-47
2023/02/12 11:42:59;;;;;;;535.55;369.95;;;;;;;23.11;22.08;100340.31;5091798;28;20409;-47
2023/02/12 11:45:51;;;;;;;205.50;145.63;;;;;;;23.30;21.88;100341.72;5093050;28;20442;-47
2023/02/12 11:48:34;;;;;;;114.35;88.00;;;;;;;23.00;21.96;100342.00;5092971;28;20024;-47
2023/02/12 11:51:10;;;;;;;100.97;74.05;;;;;;;23.13;21.63;100327.50;5092832;28;20038;-46
2023/02/12 11:53:58;;;;;;;131.73;90.40;;;;;;;23.17;21.81;100328.63;5091662;28;20039;-47
2023/02/12 11:56:54;;;;;;;109.90;74.70;;;;;;;23.36;21.63;100326.50;5092919;28;20028;-47
2023/02/12 11:59:51;;;;;;;84.60;62.92;;;;;;;23.45;21.30;100325.06;5092855;28;20020;-46
2023/02/12 12:03:16;;;;;;;74.72;57.67;;;;;;;23.41;21.91;100323.94;5092650;28;20028;-48
2023/02/12 12:05:47;;;;;;;57.55;47.22;;;;;;;23.56;21.29;100323.31;5091319;28;20024;-46
2023/02/12 12:08:57;;;;;;;59.78;50.03;;;;;;;23.46;21.47;100315.16;5092677;28;20032;-46
2023/02/12 12:12:15;;;;;;;53.10;44.70;;;;;;;23.49;21.15;100309.31;5092383;28;20028;-47
2023/02/12 12:21:23;;;;;;;46.65;40.03;;;;;;;23.20;21.49;100293.34;5092725;28;20031;-46
2023/02/12 12:24:42;;;;;;;43.28;38.65;;;;;;;23.30;21.76;100296.19;5092466;28;20020;-46
2023/02/12 12:30:54;;;;;;;43.80;39.05;;;;;;;23.28;21.37;100290.25;5092556;28;20174;-46
2023/02/12 12:33:43;;;;;;;42.72;38.15;;;;;;;23.30;21.46;100290.81;5092245;28;20028;-46